createdAt,value
2019-05-23T00:01:21.198Z,81.60
2019-05-23T00:03:52.159Z,81.70
2019-05-23T00:06:23.613Z,81.30
2019-05-23T00:08:55.140Z,82.20
2019-05-23T00:11:27.436Z,81.40
2019-05-23T00:13:58.613Z,81.30
2019-05-23T00:16:30.376Z,81.60
2019-05-23T00:19:02.553Z,81.10
2019-05-23T00:21:34.404Z,80.90
2019-05-23T00:24:05.532Z,80.60
2019-05-23T00:26:37.548Z,80.40
2019-05-23T00:29:10.663Z,80.30
2019-05-23T00:31:43.690Z,80.00
2019-05-23T00:34:15.371Z,79.80
2019-05-23T00:36:47.659Z,79.70
2019-05-23T00:39:18.206Z,79.50
2019-05-23T00:41:50.340Z,79.60
2019-05-23T00:44:21.425Z,79.40
2019-05-23T00:46:52.612Z,79.20
2019-05-23T00:49:23.602Z,78.90
2019-05-23T00:51:54.842Z,78.70
2019-05-23T00:54:26.404Z,78.60
2019-05-23T00:56:58.496Z,78.50
2019-05-23T00:59:29.657Z,78.30
2019-05-23T01:02:01.556Z,78.30
2019-05-23T01:04:32.909Z,78.10
2019-05-23T01:07:04.279Z,77.90
2019-05-23T01:09:35.099Z,77.70
2019-05-23T01:12:07.266Z,77.50
2019-05-23T01:14:39.149Z,77.50
2019-05-23T01:17:10.589Z,77.30
2019-05-23T01:19:42.215Z,77.20
2019-05-23T01:22:14.232Z,77.20
2019-05-23T01:24:45.451Z,77.00
2019-05-23T01:27:16.369Z,76.80
2019-05-23T01:29:49.776Z,76.90
2019-05-23T01:32:18.322Z,76.80
2019-05-23T01:34:49.552Z,76.70
2019-05-23T01:37:21.412Z,76.70
2019-05-23T01:39:52.548Z,76.70
2019-05-23T01:42:24.710Z,76.60
2019-05-23T01:44:55.186Z,76.60
2019-05-23T01:47:26.017Z,76.50
2019-05-23T01:49:58.283Z,76.40
2019-05-23T01:52:28.951Z,76.20
2019-05-23T01:55:00.454Z,76.10
2019-05-23T01:57:31.755Z,76.10
2019-05-23T02:00:10.608Z,75.90
2019-05-23T02:02:37.423Z,75.90
2019-05-23T02:05:10.350Z,75.70
2019-05-23T02:07:41.836Z,75.60
2019-05-23T02:10:14.024Z,75.50
2019-05-23T02:12:44.371Z,75.20
2019-05-23T02:15:15.630Z,74.90
2019-05-23T02:17:46.973Z,74.80
2019-05-23T02:20:19.540Z,74.80
2019-05-23T02:22:50.690Z,74.60
2019-05-23T02:25:23.105Z,74.50
2019-05-23T02:27:55.275Z,74.40
2019-05-23T02:30:35.295Z,74.30
2019-05-23T02:32:57.704Z,73.70
2019-05-23T02:35:29.104Z,73.80
2019-05-23T02:38:01.523Z,73.80
2019-05-23T02:40:33.794Z,73.70
2019-05-23T02:43:04.967Z,73.60
2019-05-23T02:45:37.274Z,73.30
2019-05-23T02:48:09.484Z,73.60
2019-05-23T02:50:41.833Z,73.40
2019-05-23T02:53:15.949Z,72.70
2019-05-23T02:55:47.614Z,72.90
2019-05-23T02:58:21.166Z,72.90
2019-05-23T03:00:56.136Z,72.80
2019-05-23T03:03:29.292Z,72.70
2019-05-23T03:06:01.699Z,72.60
2019-05-23T03:08:33.376Z,72.40
2019-05-23T03:11:08.101Z,72.50
2019-05-23T03:13:39.551Z,72.40
2019-05-23T03:16:16.833Z,72.20
2019-05-23T03:18:50.283Z,72.00
2019-05-23T03:21:21.201Z,72.00
2019-05-23T03:23:53.330Z,71.80
2019-05-23T03:26:24.477Z,71.70
2019-05-23T03:28:55.736Z,70.50
2019-05-23T03:31:31.672Z,71.10
2019-05-23T03:34:00.359Z,71.10
2019-05-23T03:36:31.825Z,71.10
2019-05-23T03:39:04.069Z,70.90
2019-05-23T03:41:35.968Z,70.90
2019-05-23T03:44:08.382Z,70.70
2019-05-23T03:46:40.733Z,70.80
2019-05-23T03:49:11.936Z,70.80
2019-05-23T03:51:43.097Z,70.80
2019-05-23T03:54:15.438Z,70.40
2019-05-23T03:56:46.384Z,70.80
2019-05-23T03:59:17.722Z,70.40
2019-05-23T04:01:49.903Z,70.20
2019-05-23T04:04:22.123Z,70.10
2019-05-23T04:06:54.075Z,69.90
2019-05-23T04:09:25.773Z,69.60
2019-05-23T04:11:57.296Z,69.80
2019-05-23T04:14:29.241Z,69.50
2019-05-23T04:17:00.234Z,69.40
2019-05-23T04:19:31.274Z,69.60
2019-05-23T04:22:02.401Z,69.30
2019-05-23T04:24:34.725Z,69.30
2019-05-23T04:27:06.284Z,69.10
2019-05-23T04:29:37.167Z,69.20
2019-05-23T04:32:09.348Z,68.50
2019-05-23T04:34:40.702Z,68.50
2019-05-23T04:37:11.701Z,68.40
2019-05-23T04:39:42.600Z,68.20
2019-05-23T04:42:13.792Z,68.30
2019-05-23T04:44:44.902Z,68.00
2019-05-23T04:47:16.014Z,67.50
2019-05-23T04:49:46.921Z,67.30
2019-05-23T04:52:18.212Z,67.40
2019-05-23T04:54:49.201Z,67.10
2019-05-23T04:57:20.674Z,66.90
2019-05-23T04:59:51.684Z,66.90
2019-05-23T05:02:26.328Z,67.00
2019-05-23T05:04:55.025Z,67.00
2019-05-23T05:07:26.037Z,66.20
2019-05-23T05:09:56.932Z,65.50
2019-05-23T05:12:27.979Z,65.90
2019-05-23T05:14:58.843Z,66.00
2019-05-23T05:17:29.773Z,65.90
2019-05-23T05:20:00.722Z,66.00
2019-05-23T05:22:31.648Z,65.60
2019-05-23T05:25:02.676Z,65.50
2019-05-23T05:27:33.636Z,65.60
2019-05-23T05:30:04.924Z,65.60
2019-05-23T05:32:44.543Z,65.90
2019-05-23T05:35:08.808Z,65.40
2019-05-23T05:37:39.629Z,65.20
2019-05-23T05:40:11.219Z,65.20
2019-05-23T05:42:43.165Z,65.30
2019-05-23T05:45:13.616Z,65.20
2019-05-23T05:47:44.564Z,64.70
2019-05-23T05:50:15.825Z,65.10
2019-05-23T05:52:46.879Z,65.00
2019-05-23T05:55:17.736Z,64.90
2019-05-23T05:57:48.766Z,64.90
2019-05-23T06:00:21.258Z,65.10
2019-05-23T06:03:03.776Z,65.00
2019-05-23T06:05:25.639Z,65.00
2019-05-23T06:07:55.850Z,64.60
2019-05-23T06:10:27.383Z,63.30
2019-05-23T06:12:58.309Z,63.90
2019-05-23T06:15:29.330Z,64.00
2019-05-23T06:18:00.369Z,64.20
2019-05-23T06:20:31.725Z,64.30
2019-05-23T06:23:02.955Z,64.20
2019-05-23T06:25:34.125Z,64.30
2019-05-23T06:28:05.676Z,64.20
2019-05-23T06:30:37.959Z,64.20
2019-05-23T06:33:22.490Z,64.10
2019-05-23T06:35:42.179Z,63.70
2019-05-23T06:38:13.178Z,63.60
2019-05-23T06:40:44.241Z,63.30
2019-05-23T06:43:15.345Z,63.50
2019-05-23T06:45:47.034Z,63.50
2019-05-23T06:48:18.035Z,63.40
2019-05-23T06:50:50.766Z,62.90
2019-05-23T06:53:21.179Z,63.20
2019-05-23T06:55:52.487Z,63.50
2019-05-23T06:58:23.925Z,62.90
2019-05-23T07:00:55.460Z,62.60
2019-05-23T07:03:40.680Z,62.70
2019-05-23T07:05:59.267Z,62.70
2019-05-23T07:08:32.199Z,63.00
2019-05-23T07:11:03.292Z,62.40
2019-05-23T07:13:35.575Z,62.70
2019-05-23T07:16:07.164Z,62.30
2019-05-23T07:18:38.086Z,62.00
2019-05-23T07:21:09.647Z,62.00
2019-05-23T07:23:40.658Z,62.00
2019-05-23T07:26:11.950Z,62.00
2019-05-23T07:28:43.156Z,61.80
2019-05-23T07:31:14.884Z,61.80
2019-05-23T07:34:00.506Z,61.70
2019-05-23T07:36:18.263Z,61.90
2019-05-23T07:38:49.313Z,61.10
2019-05-23T07:41:20.489Z,60.30
2019-05-23T07:43:51.519Z,60.50
2019-05-23T07:46:22.619Z,60.70
2019-05-23T07:48:53.741Z,60.60
2019-05-23T07:51:29.670Z,60.70
2019-05-23T07:54:00.663Z,60.90
2019-05-23T07:56:32.956Z,60.50
2019-05-23T07:59:03.793Z,60.60
2019-05-23T08:01:36.136Z,60.10
2019-05-23T08:04:20.668Z,60.80
2019-05-23T08:06:39.973Z,60.70
2019-05-23T08:09:12.194Z,59.80
2019-05-23T08:11:43.216Z,59.80
2019-05-23T08:14:14.995Z,59.50
2019-05-23T08:16:46.322Z,59.40
2019-05-23T08:19:19.608Z,59.30
2019-05-23T08:21:49.644Z,59.60
2019-05-23T08:24:21.449Z,59.30
2019-05-23T08:26:52.390Z,59.20
2019-05-23T08:29:26.087Z,59.30
2019-05-23T08:31:55.796Z,58.80
2019-05-23T08:34:40.764Z,58.90
2019-05-23T08:36:59.921Z,59.10
2019-05-23T08:39:32.153Z,58.60
2019-05-23T08:42:03.909Z,58.90
2019-05-23T08:44:35.080Z,58.60
2019-05-23T08:47:07.341Z,58.40
2019-05-23T08:49:38.440Z,58.70
2019-05-23T08:52:09.487Z,57.80
2019-05-23T08:54:40.914Z,57.70
2019-05-23T08:57:12.688Z,58.00
2019-05-23T08:59:43.942Z,58.10
2019-05-23T09:02:16.033Z,57.80
2019-05-23T09:05:03.316Z,57.60
2019-05-23T09:07:19.107Z,57.30
2019-05-23T09:09:50.936Z,57.20
2019-05-23T09:12:21.899Z,57.60
2019-05-23T09:14:52.920Z,57.00
2019-05-23T09:17:23.935Z,56.60
2019-05-23T09:19:54.735Z,56.60
2019-05-23T09:22:25.924Z,56.00
2019-05-23T09:24:56.897Z,56.50
2019-05-23T09:27:27.825Z,56.50
2019-05-23T09:29:59.162Z,56.10
2019-05-23T09:32:30.262Z,56.20
2019-05-23T09:35:01.392Z,56.30
2019-05-23T09:37:32.821Z,56.50
2019-05-23T09:40:04.070Z,56.20
2019-05-23T09:42:35.083Z,56.00
2019-05-23T09:45:07.224Z,56.20
2019-05-23T09:47:38.319Z,55.90
2019-05-23T09:50:11.784Z,55.90
2019-05-23T09:52:42.775Z,55.50
2019-05-23T09:55:13.896Z,55.70
2019-05-23T09:57:45.011Z,55.60
2019-05-23T10:00:17.335Z,55.80
2019-05-23T10:02:48.426Z,56.10
2019-05-23T10:05:30.961Z,56.10
2019-05-23T10:07:51.791Z,56.70
2019-05-23T10:10:23.027Z,56.90
2019-05-23T10:12:53.828Z,57.20
2019-05-23T10:15:24.522Z,57.60
2019-05-23T10:17:55.562Z,57.90
2019-05-23T10:20:28.926Z,58.30
2019-05-23T10:22:59.739Z,58.60
2019-05-23T10:25:30.671Z,59.20
2019-05-23T10:28:01.737Z,59.70
2019-05-23T10:30:33.277Z,60.10
2019-05-23T10:33:10.961Z,60.60
2019-05-23T10:35:35.626Z,61.20
2019-05-23T10:38:06.951Z,61.70
2019-05-23T10:40:37.979Z,62.00
2019-05-23T10:43:09.089Z,62.40
2019-05-23T10:45:40.171Z,62.70
2019-05-23T10:48:11.468Z,63.10
2019-05-23T10:50:45.075Z,63.30
2019-05-23T10:53:13.643Z,63.60
2019-05-23T10:55:44.744Z,64.00
2019-05-23T10:58:17.246Z,64.10
2019-05-23T11:00:49.006Z,64.60
2019-05-23T11:03:20.016Z,65.30
2019-05-23T11:05:50.993Z,66.40
2019-05-23T11:08:27.613Z,66.70
2019-05-23T11:10:54.836Z,66.70
2019-05-23T11:13:25.937Z,67.90
2019-05-23T11:15:57.386Z,68.50
2019-05-23T11:18:28.427Z,68.80
2019-05-23T11:20:59.410Z,69.80
2019-05-23T11:23:31.721Z,70.50
2019-05-23T11:26:03.150Z,70.30
2019-05-23T11:28:35.582Z,70.60
2019-05-23T11:31:07.899Z,70.40
2019-05-23T11:33:39.187Z,71.30
2019-05-23T11:36:11.537Z,71.60
2019-05-23T11:38:41.825Z,72.30
2019-05-23T11:41:13.035Z,73.40
2019-05-23T11:43:44.351Z,72.90
2019-05-23T11:46:15.196Z,74.00
2019-05-23T11:48:46.539Z,75.00
2019-05-23T11:51:18.367Z,74.90
2019-05-23T11:54:05.970Z,75.40
2019-05-23T11:56:21.700Z,75.80
2019-05-23T11:58:52.783Z,75.90
2019-05-23T12:01:24.992Z,76.00
2019-05-23T12:03:56.222Z,76.10
2019-05-23T12:06:28.429Z,77.50
2019-05-23T12:08:58.298Z,76.60
2019-05-23T12:11:29.631Z,77.30
2019-05-23T12:14:00.604Z,76.40
2019-05-23T12:16:31.686Z,76.90
2019-05-23T12:19:02.664Z,77.00
2019-05-23T12:21:33.957Z,77.30
2019-05-23T12:24:04.963Z,78.50
2019-05-23T12:26:36.023Z,77.90
2019-05-23T12:29:07.043Z,78.30
2019-05-23T12:31:38.025Z,78.90
2019-05-23T12:34:08.938Z,79.00
2019-05-23T12:36:40.368Z,79.40
2019-05-23T12:39:11.723Z,79.30
2019-05-23T12:41:44.157Z,78.50
2019-05-23T12:44:17.510Z,79.30
2019-05-23T12:46:46.438Z,79.00
2019-05-23T12:49:18.633Z,80.60
2019-05-23T12:51:49.063Z,80.10
2019-05-23T12:54:20.113Z,81.00
2019-05-23T12:56:51.515Z,80.30
2019-05-23T12:59:22.752Z,80.10
2019-05-23T13:01:54.797Z,79.90
2019-05-23T13:04:25.724Z,79.90
2019-05-23T13:06:56.875Z,80.30
2019-05-23T13:09:28.487Z,79.80
2019-05-23T13:11:59.475Z,80.60
2019-05-23T13:14:30.654Z,80.30
2019-05-23T13:17:01.945Z,79.80
2019-05-23T13:19:33.024Z,80.10
2019-05-23T13:22:04.869Z,80.20
2019-05-23T13:24:51.305Z,80.50
2019-05-23T13:27:08.388Z,79.80
2019-05-23T13:29:39.636Z,79.20
2019-05-23T13:32:10.680Z,80.20
2019-05-23T13:34:41.715Z,80.60
2019-05-23T20:05:34.863Z,87.40
2019-05-23T20:08:06.261Z,87.40
2019-05-23T20:10:38.000Z,87.70
2019-05-23T20:13:08.858Z,88.00
2019-05-23T20:15:39.902Z,88.40
2019-05-23T20:18:12.007Z,88.90
2019-05-23T20:20:42.824Z,89.00
2019-05-23T20:23:15.794Z,89.20
2019-05-23T20:25:46.075Z,90.10
2019-05-23T20:28:17.502Z,89.90
2019-05-23T20:30:51.020Z,89.70
2019-05-23T20:33:21.968Z,90.00
2019-05-23T20:35:52.898Z,90.00
2019-05-23T20:38:24.424Z,90.00
2019-05-23T20:40:55.548Z,90.00
2019-05-23T20:43:26.763Z,90.10
2019-05-23T20:45:57.689Z,90.10
2019-05-23T20:48:28.637Z,90.10
2019-05-23T20:50:59.370Z,90.10
2019-05-23T20:53:30.478Z,90.10
2019-05-23T20:56:01.477Z,90.10
2019-05-23T20:58:32.544Z,90.20
2019-05-23T21:01:05.113Z,90.20
2019-05-23T21:03:36.576Z,90.10
2019-05-23T21:06:07.710Z,90.20
2019-05-23T21:08:38.628Z,90.30
2019-05-23T21:11:09.501Z,90.30
2019-05-23T21:13:40.818Z,90.20
2019-05-23T21:16:11.728Z,90.10
2019-05-23T21:18:42.634Z,90.20
2019-05-23T21:21:13.647Z,90.20
2019-05-23T21:23:44.479Z,90.30
2019-05-23T21:26:16.345Z,90.20
2019-05-23T21:28:47.674Z,90.30
2019-05-23T21:31:19.875Z,90.20
2019-05-23T21:33:50.740Z,90.10
2019-05-23T21:36:21.620Z,90.10
2019-05-23T21:38:52.681Z,90.10
2019-05-23T21:41:23.652Z,90.00
2019-05-23T21:43:56.237Z,90.00
2019-05-23T21:46:27.295Z,90.00
2019-05-23T21:48:58.190Z,89.90
2019-05-23T21:51:29.292Z,89.80
2019-05-23T21:54:00.267Z,89.80
2019-05-23T21:56:31.330Z,90.20
2019-05-23T21:59:02.278Z,89.80
2019-05-23T22:01:34.484Z,89.90
2019-05-23T22:04:06.604Z,89.70
2019-05-23T22:06:38.680Z,89.60
2019-05-23T22:09:11.382Z,89.60
2019-05-23T22:11:42.304Z,89.30
2019-05-23T22:14:13.280Z,89.50
2019-05-23T22:16:44.281Z,89.40
2019-05-23T22:19:16.770Z,89.40
2019-05-23T22:21:47.658Z,88.70
2019-05-23T22:24:20.053Z,88.80
2019-05-23T22:26:50.341Z,88.50
2019-05-23T22:29:21.373Z,88.80
2019-05-23T22:31:55.831Z,88.50
2019-05-23T22:34:25.681Z,88.60
2019-05-23T22:36:56.772Z,89.00
2019-05-23T22:39:27.821Z,89.00
2019-05-23T22:41:59.649Z,89.00
2019-05-23T22:44:30.687Z,89.00
2019-05-23T22:47:01.754Z,88.90
2019-05-23T22:49:32.439Z,88.60
2019-05-23T22:52:03.685Z,88.70
2019-05-23T22:54:34.666Z,89.10
2019-05-23T22:57:05.706Z,88.70
2019-05-23T22:59:36.596Z,89.00
2019-05-23T23:02:08.690Z,89.00
2019-05-23T23:04:39.511Z,89.30
2019-05-23T23:07:10.407Z,89.20
2019-05-23T23:09:41.790Z,89.10
2019-05-23T23:12:12.653Z,88.60
2019-05-23T23:14:43.510Z,88.70
2019-05-23T23:17:14.605Z,88.40
2019-05-23T23:19:45.537Z,88.60
2019-05-23T23:22:16.292Z,88.60
2019-05-23T23:24:47.074Z,88.40
2019-05-23T23:27:17.998Z,88.40
2019-05-23T23:29:49.025Z,88.50
2019-05-23T23:32:20.108Z,88.20
2019-05-23T23:34:51.090Z,88.40
2019-05-23T23:37:21.872Z,88.30
2019-05-23T23:39:52.710Z,88.10
2019-05-23T23:42:23.650Z,88.40
2019-05-23T23:44:54.256Z,88.40
2019-05-23T23:47:26.421Z,88.10
2019-05-23T23:49:58.810Z,87.90
2019-05-23T23:52:29.901Z,88.40
2019-05-23T23:55:01.950Z,88.70
2019-05-23T23:57:34.070Z,88.30
